createdAt,value
2019-03-16T00:00:30.940Z,10.28
2019-03-16T00:03:02.936Z,10.20
2019-03-16T00:05:36.966Z,10.20
2019-03-16T00:08:08.996Z,10.18
2019-03-16T00:10:41.004Z,10.29
2019-03-16T00:13:15.994Z,10.20
2019-03-16T00:15:46.879Z,10.19
2019-03-16T00:18:18.885Z,10.15
2019-03-16T00:20:50.917Z,10.28
2019-03-16T00:23:22.898Z,10.33
2019-03-16T00:25:54.880Z,10.27
2019-03-16T00:28:26.923Z,10.32
2019-03-16T00:30:58.871Z,10.15
2019-03-16T00:33:30.858Z,10.19
2019-03-16T00:36:02.845Z,10.21
2019-03-16T00:38:34.874Z,10.28
2019-03-16T00:41:06.860Z,10.29
2019-03-16T00:43:38.904Z,10.27
2019-03-16T00:46:10.889Z,10.27
2019-03-16T00:48:42.890Z,10.27
2019-03-16T00:51:14.902Z,10.35
2019-03-16T00:53:46.978Z,10.30
2019-03-16T00:56:18.992Z,10.14
2019-03-16T00:58:50.982Z,10.22
2019-03-16T01:01:22.966Z,10.19
2019-03-16T01:03:55.004Z,10.11
2019-03-16T01:06:27.018Z,10.11
2019-03-16T01:08:59.085Z,10.23
2019-03-16T01:11:31.077Z,10.17
2019-03-16T01:14:03.074Z,10.27
2019-03-16T01:16:35.104Z,10.21
2019-03-16T01:19:07.097Z,10.25
2019-03-16T01:21:39.136Z,10.14
2019-03-16T01:24:11.110Z,10.07
2019-03-16T01:26:43.086Z,10.20
2019-03-16T01:29:15.026Z,10.19
2019-03-16T01:31:47.028Z,10.22
2019-03-16T01:34:19.019Z,10.21
2019-03-16T01:36:51.026Z,10.20
2019-03-16T01:39:22.992Z,10.16
2019-03-16T01:41:54.990Z,10.21
2019-03-16T01:44:28.241Z,10.15
2019-03-16T01:47:00.256Z,10.22
2019-03-16T01:49:32.313Z,10.17
2019-03-16T01:52:04.434Z,10.16
2019-03-16T01:54:38.790Z,10.10
2019-03-16T01:57:10.811Z,10.02
2019-03-16T01:59:42.830Z,10.15
2019-03-16T02:02:14.798Z,10.03
2019-03-16T02:04:46.765Z,10.07
2019-03-16T02:07:18.756Z,9.95
2019-03-16T02:09:50.710Z,9.95
2019-03-16T02:12:22.692Z,9.99
2019-03-16T02:14:54.657Z,10.08
2019-03-16T02:17:26.645Z,10.01
2019-03-16T02:19:58.609Z,10.01
2019-03-16T02:22:30.658Z,10.01
2019-03-16T02:25:02.668Z,9.99
2019-03-16T02:27:34.667Z,10.02
2019-03-16T02:30:07.072Z,10.00
2019-03-16T02:32:39.091Z,10.00
2019-03-16T02:35:11.004Z,10.01
2019-03-16T02:37:43.011Z,9.92
2019-03-16T02:40:14.974Z,10.02
2019-03-16T02:42:46.965Z,9.90
2019-03-16T02:45:18.949Z,10.07
2019-03-16T02:47:50.932Z,10.07
2019-03-16T02:50:22.886Z,9.95
2019-03-16T02:52:54.874Z,9.89
2019-03-16T02:55:26.848Z,9.93
2019-03-16T02:57:58.828Z,9.92
2019-03-16T03:00:30.782Z,9.86
2019-03-16T03:03:02.765Z,9.94
2019-03-16T03:05:37.093Z,9.92
2019-03-16T03:08:09.046Z,9.92
2019-03-16T03:10:41.076Z,9.85
2019-03-16T03:13:13.942Z,9.92
2019-03-16T03:15:46.202Z,9.86
2019-03-16T03:18:18.133Z,9.81
2019-03-16T03:20:50.243Z,9.83
2019-03-16T03:23:22.217Z,9.91
2019-03-16T03:25:54.179Z,9.87
2019-03-16T03:28:26.117Z,9.92
2019-03-16T03:30:58.109Z,9.78
2019-03-16T03:33:56.125Z,9.78
2019-03-16T03:36:03.992Z,9.79
2019-03-16T03:38:35.958Z,9.83
2019-03-16T03:41:07.905Z,9.83
2019-03-16T03:43:39.844Z,9.79
2019-03-16T03:46:11.838Z,9.92
2019-03-16T03:48:43.766Z,9.87
2019-03-16T03:51:15.756Z,9.88
2019-03-16T03:53:47.713Z,9.88
2019-03-16T03:56:19.706Z,9.92
2019-03-16T03:58:51.677Z,9.95
2019-03-16T04:01:23.672Z,9.83
2019-03-16T04:04:13.634Z,9.83
2019-03-16T04:06:29.485Z,9.81
2019-03-16T04:09:01.526Z,9.95
2019-03-16T04:11:33.509Z,9.98
2019-03-16T04:14:05.501Z,9.92
2019-03-16T04:16:37.499Z,9.85
2019-03-16T04:19:09.471Z,9.77
2019-03-16T04:21:41.530Z,9.83
2019-03-16T04:24:13.434Z,10.01
2019-03-16T04:26:45.470Z,9.94
2019-03-16T04:29:17.415Z,9.86
2019-03-16T04:31:49.463Z,9.88
2019-03-16T04:34:29.285Z,9.90
2019-03-16T04:36:55.342Z,9.99
2019-03-16T04:39:27.335Z,9.91
2019-03-16T04:41:59.271Z,9.97
2019-03-16T04:44:31.246Z,9.92
2019-03-16T04:47:03.199Z,9.92
2019-03-16T04:49:35.158Z,9.82
2019-03-16T04:52:07.108Z,9.86
2019-03-16T04:54:39.176Z,9.83
2019-03-16T04:57:11.126Z,9.86
2019-03-16T04:59:43.110Z,9.83
2019-03-16T05:02:15.119Z,9.97
2019-03-16T05:04:47.069Z,9.87
2019-03-16T05:07:19.023Z,9.84
2019-03-16T05:09:50.992Z,9.90
2019-03-16T05:12:22.939Z,9.90
2019-03-16T05:14:54.909Z,9.88
2019-03-16T05:17:26.858Z,9.93
2019-03-16T05:19:58.848Z,9.92
2019-03-16T05:22:30.813Z,9.87
2019-03-16T05:25:02.991Z,9.87
2019-03-16T05:27:34.977Z,9.88
2019-03-16T05:30:08.170Z,9.88
2019-03-16T05:32:40.127Z,9.89
2019-03-16T05:35:12.099Z,10.02
2019-03-16T05:37:44.071Z,9.91
2019-03-16T05:40:16.027Z,9.99
2019-03-16T05:42:47.998Z,9.95
2019-03-16T05:45:20.016Z,10.02
2019-03-16T05:47:51.979Z,9.96
2019-03-16T05:50:23.965Z,9.96
2019-03-16T05:52:55.911Z,10.02
2019-03-16T05:55:27.922Z,10.01
2019-03-16T05:57:59.887Z,9.99
2019-03-16T06:00:31.887Z,10.09
2019-03-16T06:03:05.002Z,9.97
2019-03-16T06:05:36.997Z,10.02
2019-03-16T06:08:08.938Z,10.08
2019-03-16T06:10:40.922Z,10.17
2019-03-16T06:13:12.917Z,10.09
2019-03-16T06:15:44.898Z,10.08
2019-03-16T06:18:16.903Z,10.15
2019-03-16T06:20:51.179Z,10.15
2019-03-16T06:23:24.240Z,10.14
2019-03-16T06:25:56.206Z,10.07
2019-03-16T06:28:28.194Z,9.99
2019-03-16T06:31:00.128Z,10.06
2019-03-16T06:33:32.109Z,10.12
2019-03-16T06:36:04.071Z,10.14
2019-03-16T06:38:36.095Z,10.15
2019-03-16T06:41:08.057Z,10.15
2019-03-16T06:43:40.024Z,10.17
2019-03-16T06:46:11.994Z,10.18
2019-03-16T06:48:43.982Z,10.18
2019-03-16T06:51:15.922Z,10.17
2019-03-16T06:53:47.890Z,10.17
2019-03-16T06:56:19.860Z,10.23
2019-03-16T07:01:50.944Z,10.13
2019-03-16T07:04:22.920Z,10.02
2019-03-16T07:06:54.879Z,10.11
2019-03-16T07:09:26.919Z,10.11
2019-03-16T07:11:58.911Z,10.09
2019-03-16T07:14:30.887Z,10.17
2019-03-16T07:17:02.867Z,10.20
2019-03-16T07:19:37.623Z,10.20
2019-03-16T07:25:22.583Z,10.25
2019-03-16T07:27:54.642Z,10.27
2019-03-16T07:30:26.650Z,10.36
2019-03-16T07:32:58.612Z,10.29
2019-03-16T07:35:30.652Z,10.35
2019-03-16T07:38:02.618Z,10.36
2019-03-16T07:40:34.928Z,10.41
2019-03-16T07:43:06.979Z,10.29
2019-03-16T07:45:38.965Z,10.32
2019-03-16T07:48:10.964Z,10.27
2019-03-16T07:50:42.995Z,10.26
2019-03-16T07:53:14.999Z,10.32
2019-03-16T07:55:46.971Z,10.33
2019-03-16T07:58:18.926Z,10.37
2019-03-16T08:00:50.926Z,10.48
2019-03-16T08:03:22.938Z,10.43
2019-03-16T08:05:54.936Z,10.31
2019-03-16T08:08:29.757Z,10.30
2019-03-16T08:11:01.777Z,10.32
2019-03-16T08:13:33.756Z,10.27
2019-03-16T08:16:05.948Z,10.27
2019-03-16T08:18:37.934Z,10.44
2019-03-16T08:21:09.953Z,10.47
2019-03-16T08:23:41.931Z,10.41
2019-03-16T08:26:13.931Z,10.40
2019-03-16T08:28:45.939Z,10.50
2019-03-16T08:31:19.167Z,10.50
2019-03-16T08:33:51.127Z,10.49
2019-03-16T08:36:25.850Z,10.46
2019-03-16T08:38:57.819Z,10.46
2019-03-16T08:41:29.813Z,10.49
2019-03-16T08:44:01.821Z,10.40
2019-03-16T08:46:33.834Z,10.40
2019-03-16T08:49:05.814Z,10.43
2019-03-16T08:51:37.810Z,10.51
2019-03-16T08:54:09.842Z,10.53
2019-03-16T08:56:41.889Z,10.43
2019-03-16T08:59:13.943Z,10.55
2019-03-16T09:01:45.912Z,10.59
2019-03-16T09:04:17.962Z,10.67
2019-03-16T09:06:52.794Z,10.70
2019-03-16T09:09:23.871Z,10.87
2019-03-16T09:11:58.149Z,11.03
2019-03-16T09:14:29.753Z,11.18
2019-03-16T09:17:01.723Z,11.32
2019-03-16T09:19:33.696Z,11.37
2019-03-16T09:22:05.701Z,11.40
2019-03-16T09:24:37.730Z,11.36
2019-03-16T09:27:09.704Z,11.43
2019-03-16T09:29:41.731Z,11.32
2019-03-16T09:32:13.715Z,11.31
2019-03-16T09:34:45.717Z,11.33
2019-03-16T09:37:17.698Z,11.27
2019-03-16T09:39:49.723Z,11.16
2019-03-16T09:42:21.740Z,11.17
2019-03-16T09:44:53.722Z,11.02
2019-03-16T09:47:25.688Z,11.03
2019-03-16T09:49:57.662Z,10.97
2019-03-16T09:52:29.654Z,10.96
2019-03-16T09:55:01.696Z,10.94
2019-03-16T09:57:33.664Z,10.86
2019-03-16T10:00:07.582Z,10.88
2019-03-16T10:02:39.545Z,10.82
2019-03-16T10:05:11.564Z,10.80
2019-03-16T10:07:43.586Z,10.85
2019-03-16T10:10:15.587Z,10.75
2019-03-16T10:12:47.557Z,10.78
2019-03-16T10:15:19.594Z,10.86
2019-03-16T10:17:51.578Z,10.94
2019-03-16T10:20:23.587Z,10.99
2019-03-16T10:22:55.641Z,11.10
2019-03-16T10:25:27.605Z,11.11
2019-03-16T10:27:59.598Z,11.24
2019-03-16T10:30:31.617Z,11.30
2019-03-16T10:33:03.742Z,11.35
2019-03-16T10:35:35.701Z,11.35
2019-03-16T10:38:07.743Z,11.38
2019-03-16T10:40:39.711Z,11.45
2019-03-16T10:43:11.724Z,11.49
2019-03-16T10:45:43.744Z,11.62
2019-03-16T10:48:15.750Z,11.61
2019-03-16T10:50:47.759Z,11.72
2019-03-16T10:53:19.717Z,11.76
2019-03-16T10:55:51.708Z,11.75
2019-03-16T10:58:23.770Z,11.85
2019-03-16T11:00:55.762Z,11.85
2019-03-16T11:03:27.732Z,11.83
2019-03-16T11:06:02.661Z,11.95
2019-03-16T11:08:34.642Z,11.84
2019-03-16T11:11:06.631Z,11.87
2019-03-16T11:13:38.641Z,11.87
2019-03-16T11:16:10.881Z,11.83
2019-03-16T11:18:42.914Z,11.88
2019-03-16T11:21:14.913Z,11.84
2019-03-16T11:23:46.978Z,11.86
2019-03-16T11:26:20.019Z,11.99
2019-03-16T11:28:51.993Z,12.12
2019-03-16T11:31:23.968Z,12.33
2019-03-16T11:33:55.992Z,12.49
2019-03-16T11:36:28.044Z,12.55
2019-03-16T11:39:00.009Z,12.73
2019-03-16T11:41:32.029Z,12.74
2019-03-16T11:44:04.039Z,12.75
2019-03-16T11:46:36.055Z,12.89
2019-03-16T11:49:08.027Z,13.00
2019-03-16T11:51:41.878Z,13.14
2019-03-16T11:54:13.913Z,13.17
2019-03-16T11:56:45.942Z,13.10
2019-03-16T11:59:21.936Z,13.19
2019-03-16T12:01:51.887Z,13.13
2019-03-16T12:04:25.062Z,13.19
2019-03-16T12:06:57.071Z,13.26
2019-03-16T12:09:31.815Z,13.15
2019-03-16T12:12:03.792Z,13.23
2019-03-16T12:14:35.824Z,13.05
2019-03-16T12:17:07.797Z,13.07
2019-03-16T12:19:39.852Z,12.91
2019-03-16T12:22:11.853Z,13.10
2019-03-16T12:24:43.885Z,12.92
2019-03-16T12:27:15.868Z,12.93
2019-03-16T12:29:50.416Z,12.86
2019-03-16T12:32:22.405Z,13.00
2019-03-16T12:34:56.829Z,12.98
2019-03-16T12:37:28.860Z,12.99
2019-03-16T12:40:02.662Z,12.97
2019-03-16T12:42:34.672Z,12.91
2019-03-16T12:45:09.594Z,13.09
2019-03-16T12:47:41.597Z,13.02
2019-03-16T12:50:13.698Z,13.02
2019-03-16T12:52:45.682Z,13.03
2019-03-16T12:55:17.701Z,13.16
2019-03-16T12:57:50.932Z,13.04
2019-03-16T13:00:22.921Z,13.03
2019-03-16T13:02:55.298Z,13.02
2019-03-16T13:05:27.271Z,13.00
2019-03-16T13:07:59.312Z,13.06
2019-03-16T13:10:31.315Z,13.08
2019-03-16T13:13:03.308Z,13.17
2019-03-16T13:15:35.288Z,13.21
2019-03-16T13:18:07.308Z,13.16
2019-03-16T13:20:39.316Z,13.26
2019-03-16T13:23:11.313Z,13.26
2019-03-16T13:25:43.388Z,13.32
2019-03-16T13:28:18.084Z,13.27
2019-03-16T13:30:50.157Z,13.41
2019-03-16T13:33:22.162Z,13.42
2019-03-16T13:35:54.149Z,13.30
2019-03-16T13:38:26.196Z,13.51
2019-03-16T13:40:58.229Z,13.66
2019-03-16T13:43:30.292Z,13.79
2019-03-16T13:46:02.294Z,13.81
2019-03-16T13:48:34.295Z,13.82
2019-03-16T13:51:06.310Z,13.96
2019-03-16T13:53:38.352Z,13.85
2019-03-16T13:56:12.246Z,13.87
2019-03-16T13:58:46.142Z,13.95
2019-03-16T14:01:21.153Z,13.95
2019-03-16T14:03:53.198Z,14.02
2019-03-16T14:06:25.210Z,14.04
2019-03-16T14:08:59.196Z,13.83
2019-03-16T14:11:31.456Z,13.86
2019-03-16T14:14:03.705Z,13.78
2019-03-16T14:16:35.703Z,13.74
2019-03-16T14:19:08.191Z,13.84
2019-03-16T14:21:40.455Z,13.80
2019-03-16T14:24:12.539Z,13.86
2019-03-16T14:26:45.639Z,13.83
2019-03-16T14:29:17.682Z,13.80
2019-03-16T14:31:49.718Z,13.87
2019-03-16T14:34:24.660Z,13.87
2019-03-16T14:36:57.462Z,13.93
2019-03-16T14:39:29.787Z,14.02
2019-03-16T14:42:02.861Z,14.01
2019-03-16T14:44:34.871Z,14.09
2019-03-16T14:47:08.785Z,14.11
2019-03-16T14:49:41.473Z,14.12
2019-03-16T14:52:14.008Z,14.24
2019-03-16T14:54:46.353Z,14.25
2019-03-16T14:57:18.411Z,14.18
2019-03-16T14:59:50.542Z,14.11
2019-03-16T15:02:22.629Z,14.24
2019-03-16T15:04:54.661Z,14.29
2019-03-16T15:07:26.644Z,14.10
2019-03-16T15:09:58.710Z,14.31
2019-03-16T15:12:31.081Z,14.22
2019-03-16T15:15:03.833Z,14.15
2019-03-16T15:17:38.089Z,14.20
2019-03-16T15:20:10.256Z,14.12
2019-03-16T15:22:42.388Z,13.97
2019-03-16T15:25:14.496Z,14.04
2019-03-16T15:27:48.419Z,13.85
2019-03-16T15:30:20.668Z,13.93
2019-03-16T15:32:52.816Z,13.86
2019-03-16T15:35:24.904Z,13.76
2019-03-16T15:37:57.296Z,13.69
2019-03-16T15:40:29.267Z,13.54
2019-03-16T15:43:01.380Z,13.49
2019-03-16T15:45:33.380Z,13.68
2019-03-16T15:48:05.470Z,13.54
2019-03-16T15:50:37.575Z,13.40
2019-03-16T15:53:09.748Z,13.36
2019-03-16T15:55:41.789Z,13.42
2019-03-16T15:58:13.864Z,13.33
2019-03-16T16:00:46.029Z,13.26
2019-03-16T16:03:18.327Z,13.32
2019-03-16T16:05:50.481Z,13.22
2019-03-16T16:08:22.625Z,13.15
2019-03-16T16:11:00.864Z,13.14
2019-03-16T16:13:28.900Z,13.12
2019-03-16T16:16:01.087Z,13.08
2019-03-16T16:18:33.285Z,13.03
2019-03-16T16:21:05.409Z,13.12
2019-03-16T16:23:37.585Z,13.02
2019-03-16T16:26:09.767Z,12.97
2019-03-16T16:28:43.129Z,12.93
2019-03-16T16:31:16.538Z,12.93
2019-03-16T16:33:48.943Z,12.91
2019-03-16T16:36:21.176Z,12.84
2019-03-16T16:38:53.223Z,12.78
2019-03-16T16:41:25.762Z,12.71
2019-03-16T16:43:57.999Z,12.66
2019-03-16T16:46:30.169Z,12.65
2019-03-16T16:49:02.330Z,12.59
2019-03-16T16:51:34.438Z,12.54
2019-03-16T16:54:08.432Z,12.49
2019-03-16T16:56:42.334Z,12.45
2019-03-16T16:59:14.373Z,12.37
2019-03-16T17:01:46.483Z,12.29
2019-03-16T17:04:18.652Z,12.22
2019-03-16T17:06:50.714Z,12.17
2019-03-16T17:09:22.912Z,12.13
2019-03-16T17:11:55.025Z,12.07
2019-03-16T17:14:27.097Z,12.01
2019-03-16T17:16:59.100Z,11.92
2019-03-16T17:19:31.214Z,11.84
2019-03-16T17:22:03.363Z,11.73
2019-03-16T17:24:35.562Z,11.64
2019-03-16T17:27:07.593Z,11.54
2019-03-16T17:29:39.630Z,11.47
2019-03-16T17:32:11.953Z,11.41
2019-03-16T17:34:44.034Z,11.30
2019-03-16T17:37:16.113Z,11.15
2019-03-16T17:39:50.046Z,11.07
2019-03-16T17:42:22.165Z,10.96
2019-03-16T17:44:54.282Z,10.90
2019-03-16T17:47:26.271Z,10.79
2019-03-16T17:49:58.336Z,10.69
2019-03-16T17:52:30.533Z,10.53
2019-03-16T17:55:02.852Z,10.44
2019-03-16T17:57:35.064Z,10.37
2019-03-16T18:00:08.547Z,10.22
2019-03-16T18:02:50.685Z,10.15
2019-03-16T18:05:14.596Z,10.11
2019-03-16T18:07:46.686Z,10.03
2019-03-16T18:10:18.718Z,9.92
2019-03-16T18:12:52.058Z,9.78
2019-03-16T18:15:24.111Z,9.73
2019-03-16T18:17:56.156Z,9.61
2019-03-16T18:20:28.426Z,9.57
2019-03-16T18:23:00.576Z,9.48
2019-03-16T18:25:32.641Z,9.42
2019-03-16T18:28:04.823Z,9.26
2019-03-16T18:30:37.073Z,9.26
2019-03-16T18:33:09.165Z,9.16
2019-03-16T18:35:41.231Z,8.95
2019-03-16T18:38:13.253Z,8.95
2019-03-16T18:40:45.338Z,8.83
2019-03-16T18:43:17.453Z,8.83
2019-03-16T18:45:49.572Z,8.78
2019-03-16T18:48:21.903Z,8.67
2019-03-16T18:50:54.229Z,8.62
2019-03-16T18:53:26.315Z,8.52
2019-03-16T18:55:58.380Z,8.47
2019-03-16T18:58:37.076Z,8.42
2019-03-16T19:01:04.699Z,8.38
2019-03-16T19:03:36.760Z,8.35
2019-03-16T19:06:08.810Z,8.30
2019-03-16T19:08:40.901Z,8.23
2019-03-16T19:11:14.356Z,8.16
2019-03-16T19:13:46.379Z,8.02
2019-03-16T19:16:18.437Z,7.91
2019-03-16T19:18:50.546Z,7.91
2019-03-16T19:21:22.785Z,7.84
2019-03-16T19:23:55.016Z,7.77
2019-03-16T19:26:29.995Z,7.68
2019-03-16T19:29:01.477Z,7.59
2019-03-16T19:31:33.505Z,7.59
2019-03-16T19:34:05.515Z,7.57
2019-03-16T19:36:37.589Z,7.54
2019-03-16T19:39:09.677Z,7.50
2019-03-16T19:41:41.919Z,7.48
2019-03-16T19:44:14.022Z,7.42
2019-03-16T19:46:46.102Z,7.38
2019-03-16T19:49:18.157Z,7.32
2019-03-16T19:51:50.227Z,7.27
2019-03-16T19:54:22.254Z,7.21
2019-03-16T19:56:54.313Z,7.16
2019-03-16T19:59:26.361Z,7.05
2019-03-16T20:01:58.447Z,7.02
2019-03-16T20:04:35.810Z,7.00
2019-03-16T20:07:04.492Z,6.97
2019-03-16T20:09:36.745Z,6.98
2019-03-16T20:12:08.821Z,6.97
2019-03-16T20:14:41.041Z,6.87
2019-03-16T20:17:13.184Z,6.75
2019-03-16T20:19:45.313Z,6.77
2019-03-16T20:22:17.393Z,6.72
2019-03-16T20:24:49.520Z,6.65
2019-03-16T20:27:21.635Z,6.58
2019-03-16T20:29:53.730Z,6.56
2019-03-16T20:32:26.965Z,6.55
2019-03-16T20:34:59.094Z,6.58
2019-03-16T20:37:31.329Z,6.58
2019-03-16T20:40:04.629Z,6.56
2019-03-16T20:42:36.738Z,6.52
2019-03-16T20:45:10.773Z,6.45
2019-03-16T20:47:42.858Z,6.30
2019-03-16T20:50:14.913Z,6.25
2019-03-16T20:52:47.125Z,6.24
2019-03-16T20:55:19.775Z,6.23
2019-03-16T20:57:51.842Z,6.15
2019-03-16T21:00:23.945Z,6.12
2019-03-16T21:02:56.162Z,6.08
2019-03-16T21:05:28.223Z,5.96
2019-03-16T21:08:00.205Z,6.00
2019-03-16T21:10:32.301Z,5.98
2019-03-16T21:13:05.725Z,5.93
2019-03-16T21:15:37.870Z,5.94
2019-03-16T21:18:09.896Z,5.86
2019-03-16T21:20:42.015Z,5.85
2019-03-16T21:23:14.074Z,5.81
2019-03-16T21:25:46.341Z,5.81
2019-03-16T21:28:20.199Z,5.71
2019-03-16T21:30:52.254Z,5.64
2019-03-16T21:33:29.470Z,5.65
2019-03-16T21:35:58.303Z,5.65
2019-03-16T21:38:30.448Z,5.61
2019-03-16T21:41:02.593Z,5.59
2019-03-16T21:43:34.685Z,5.49
2019-03-16T21:46:06.736Z,5.48
2019-03-16T21:48:38.804Z,5.46
2019-03-16T21:51:12.207Z,5.40
2019-03-16T21:53:44.342Z,5.34
2019-03-16T21:56:16.492Z,5.30
2019-03-16T21:58:48.694Z,5.35
2019-03-16T22:01:20.731Z,5.27
2019-03-16T22:03:52.817Z,5.24
2019-03-16T22:06:25.010Z,5.18
2019-03-16T22:08:57.096Z,5.17
2019-03-16T22:11:29.107Z,5.05
2019-03-16T22:14:01.242Z,5.01
2019-03-16T22:16:33.291Z,5.08
2019-03-16T22:19:05.617Z,5.03
2019-03-16T22:21:37.843Z,4.97
2019-03-16T22:24:09.796Z,4.99
2019-03-16T22:26:42.053Z,4.91
2019-03-16T22:29:14.090Z,4.94
2019-03-16T22:31:46.147Z,4.80
2019-03-16T22:34:18.258Z,4.88
2019-03-16T22:36:50.403Z,4.85
2019-03-16T22:39:22.680Z,4.85
2019-03-16T22:41:54.981Z,5.00
2019-03-16T22:44:27.132Z,4.93
2019-03-16T22:46:59.141Z,4.89
2019-03-16T22:49:31.450Z,4.90
2019-03-16T22:52:03.573Z,4.82
2019-03-16T22:54:35.623Z,4.84
2019-03-16T22:57:07.656Z,4.86
2019-03-16T22:59:39.961Z,4.85
2019-03-16T23:02:11.984Z,4.91
2019-03-16T23:04:44.053Z,4.85
2019-03-16T23:07:16.043Z,4.85
2019-03-16T23:09:48.132Z,4.86
2019-03-16T23:12:20.496Z,4.86
2019-03-16T23:14:52.702Z,4.88
2019-03-16T23:17:24.745Z,4.76
2019-03-16T23:19:56.770Z,4.76
2019-03-16T23:22:29.109Z,4.58
2019-03-16T23:25:01.184Z,4.63
2019-03-16T23:27:33.215Z,4.55
2019-03-16T23:30:05.593Z,4.45
2019-03-16T23:32:37.576Z,4.44
2019-03-16T23:35:10.742Z,4.34
2019-03-16T23:37:42.724Z,4.23
2019-03-16T23:40:14.785Z,4.25
2019-03-16T23:42:46.845Z,4.25
2019-03-16T23:45:18.865Z,4.13
2019-03-16T23:47:51.401Z,4.04
2019-03-16T23:50:23.698Z,4.03
2019-03-16T23:52:55.705Z,3.94
2019-03-16T23:55:27.989Z,3.91
2019-03-16T23:57:59.961Z,3.97
